Time;durP1;ratioP1;P1;durP2;ratioP2;P2;SDS_P1;SDS_P2;PMS_P1;PMS_P2;Temp;Humidity;BMP_temperature;BMP_pressure;BME280_temperature;BME280_humidity;BME280_pressure;Samples;Min_cycle;Max_cycle;Signal;HPM_P1;HPM_P2
2022/10/19 00:01:29;;;;;;;3.23;2.83;;;13.00;99.90;;;;;;5111761;28;20765;-83
2022/10/19 00:03:57;;;;;;;2.67;2.10;;;13.00;99.90;;;;;;5111992;28;20608;-84
2022/10/19 00:06:27;;;;;;;1.83;1.73;;;12.90;99.90;;;;;;5112159;28;20661;-82
2022/10/19 00:08:54;;;;;;;13.13;2.07;;;12.90;99.90;;;;;;5110953;28;20723;-84
2022/10/19 00:11:22;;;;;;;1.90;1.80;;;13.00;99.90;;;;;;5112085;28;20604;-84
2022/10/19 00:13:51;;;;;;;2.10;1.90;;;13.00;99.90;;;;;;5112107;28;20643;-83
2022/10/19 00:16:18;;;;;;;3.43;1.90;;;13.00;99.90;;;;;;5111822;28;20654;-82
2022/10/19 00:18:45;;;;;;;3.07;2.70;;;12.90;99.90;;;;;;5111074;28;20611;-82
2022/10/19 00:21:14;;;;;;;1.90;1.80;;;12.80;99.90;;;;;;5111490;28;20739;-82
2022/10/19 00:23:41;;;;;;;2.40;2.20;;;12.80;99.90;;;;;;5111936;28;20612;-83
2022/10/19 00:26:08;;;;;;;3.23;2.63;;;13.00;99.90;;;;;;5111949;28;20612;-83
2022/10/19 00:28:36;;;;;;;2.80;2.60;;;12.80;99.90;;;;;;5111283;28;20596;-83
2022/10/19 00:31:05;;;;;;;2.67;2.47;;;13.30;99.90;;;;;;5111978;28;20616;-83
2022/10/19 00:33:32;;;;;;;3.23;2.43;;;12.90;99.90;;;;;;5111137;28;20635;-83
2022/10/19 00:35:59;;;;;;;2.77;2.50;;;12.90;99.90;;;;;;5111282;28;20732;-82
2022/10/19 00:38:26;;;;;;;3.80;2.37;;;12.90;99.90;;;;;;5110997;28;20632;-83
2022/10/19 00:40:53;;;;;;;3.73;2.50;;;13.00;99.90;;;;;;5111579;28;20699;-82
2022/10/19 00:43:21;;;;;;;2.90;2.43;;;13.00;99.90;;;;;;5111101;28;20715;-83
2022/10/19 00:45:49;;;;;;;3.53;3.07;;;;;;;;;;5112484;27;21208;-83
2022/10/19 00:48:20;;;;;;;3.33;2.93;;;12.90;99.90;;;;;;5111071;28;20661;-83
2022/10/19 00:50:49;;;;;;;4.60;3.10;;;12.90;99.90;;;;;;5110159;28;21040;-83
2022/10/19 00:53:16;;;;;;;4.53;3.17;;;13.20;99.90;;;;;;5111181;28;20976;-83
2022/10/19 00:55:43;;;;;;;3.27;2.57;;;12.90;99.90;;;;;;5111302;28;20641;-83
2022/10/19 00:58:10;;;;;;;4.27;2.90;;;12.90;99.90;;;;;;5110311;28;20655;-83
2022/10/19 01:00:37;;;;;;;3.00;2.70;;;12.80;99.90;;;;;;5110742;28;20679;-82
2022/10/19 01:03:05;;;;;;;4.00;2.90;;;12.80;99.90;;;;;;5110332;28;20727;-85
2022/10/19 01:05:35;;;;;;;4.13;3.10;;;12.90;99.90;;;;;;5109826;28;20685;-83
2022/10/19 01:08:02;;;;;;;5.03;4.10;;;12.90;99.90;;;;;;5110572;28;20596;-86
2022/10/19 01:10:38;;;;;;;4.50;2.70;;;12.90;99.90;;;;;;5110739;28;20607;-82
2022/10/19 01:13:21;;;;;;;4.33;3.93;;;12.90;99.90;;;;;;5111181;28;20615;-85
2022/10/19 01:15:56;;;;;;;4.13;3.13;;;12.80;99.90;;;;;;5111946;28;20607;-84
2022/10/19 01:18:31;;;;;;;2.83;2.50;;;12.90;99.90;;;;;;5115039;28;20657;-84
2022/10/19 01:21:25;;;;;;;5.00;3.30;;;12.90;99.90;;;;;;5115208;28;20694;-83
2022/10/19 01:24:26;;;;;;;3.57;3.27;;;13.20;99.90;;;;;;5114575;28;20706;-84
2022/10/19 01:27:23;;;;;;;6.97;5.17;;;13.00;99.90;;;;;;5114502;28;20606;-83
2022/10/19 01:30:15;;;;;;;3.83;3.53;;;13.10;99.90;;;;;;5114932;28;20596;-83
2022/10/19 01:32:54;;;;;;;3.93;3.53;;;13.20;99.90;;;;;;5115133;28;20977;-85
2022/10/19 01:35:29;;;;;;;4.50;3.73;;;13.20;99.90;;;;;;5114747;28;20608;-83
2022/10/19 01:38:09;;;;;;;4.67;3.87;;;13.20;99.90;;;;;;5114639;28;20619;-82
2022/10/19 01:40:43;;;;;;;4.83;3.33;;;13.40;99.90;;;;;;5114090;28;20725;-82
2022/10/19 01:43:20;;;;;;;3.40;3.10;;;13.30;99.90;;;;;;5114923;28;20619;-83
2022/10/19 01:45:52;;;;;;;4.03;3.63;;;13.30;99.90;;;;;;5114783;28;20602;-83
2022/10/19 01:48:23;;;;;;;5.00;3.73;;;13.40;99.90;;;;;;5114273;28;20722;-83
2022/10/19 01:50:57;;;;;;;6.63;3.50;;;13.40;99.90;;;;;;5112951;28;20622;-83
2022/10/19 01:53:26;;;;;;;5.00;3.10;;;13.40;99.90;;;;;;5115163;28;20955;-84
2022/10/19 01:55:55;;;;;;;5.80;3.60;;;13.50;99.90;;;;;;5114855;28;20703;-83
2022/10/19 01:58:27;;;;;;;6.63;4.53;;;13.50;99.90;;;;;;5102880;28;21189;-83
2022/10/19 02:00:58;;;;;;;6.70;3.30;;;13.50;99.90;;;;;;5114412;28;21247;-82
2022/10/19 02:03:26;;;;;;;4.27;3.40;;;13.50;99.90;;;;;;5114860;28;20604;-84
2022/10/19 02:05:54;;;;;;;8.73;5.40;;;13.60;99.90;;;;;;5114687;28;20647;-83
2022/10/19 02:08:27;;;;;;;8.90;4.20;;;13.60;99.90;;;;;;5113994;28;20616;-83
2022/10/19 02:10:55;;;;;;;7.63;5.27;;;13.60;99.90;;;;;;5114705;28;20740;-83
2022/10/19 02:13:24;;;;;;;8.10;4.60;;;13.60;99.90;;;;;;5114305;28;21261;-84
2022/10/19 02:15:54;;;;;;;7.33;3.20;;;13.70;99.90;;;;;;5113833;28;20599;-82
2022/10/19 02:18:28;;;;;;;8.07;3.77;;;13.60;99.90;;;;;;5113667;28;20612;-82
2022/10/19 02:20:55;;;;;;;7.47;4.57;;;13.60;99.90;;;;;;5114323;28;20663;-83
2022/10/19 02:23:25;;;;;;;5.80;3.90;;;13.60;99.90;;;;;;5114397;28;20703;-85
2022/10/19 02:25:52;;;;;;;10.33;4.50;;;13.70;99.90;;;;;;5114081;28;20639;-83
2022/10/19 02:28:20;;;;;;;9.80;4.50;;;13.70;99.90;;;;;;5112932;28;21173;-84
2022/10/19 02:30:47;;;;;;;7.07;4.63;;;13.70;99.90;;;;;;5114322;28;21081;-83
2022/10/19 02:33:15;;;;;;;6.20;4.70;;;13.70;99.90;;;;;;5113624;28;20727;-83
2022/10/19 02:35:43;;;;;;;11.40;5.93;;;13.70;99.90;;;;;;5114117;28;20603;-84
2022/10/19 02:38:16;;;;;;;6.50;4.70;;;13.80;99.90;;;;;;5113220;28;20701;-83
2022/10/19 02:40:51;;;;;;;3.23;2.93;;;13.80;99.90;;;;;;5113605;28;20650;-83
2022/10/19 02:43:21;;;;;;;13.17;5.77;;;13.80;99.90;;;;;;5113612;28;20600;-83
2022/10/19 02:45:54;;;;;;;7.33;5.00;;;13.70;99.90;;;;;;5113706;28;20611;-83
2022/10/19 02:48:24;;;;;;;5.90;3.50;;;14.50;99.90;;;;;;5113024;28;21016;-83
2022/10/19 02:50:53;;;;;;;7.33;4.43;;;13.70;99.90;;;;;;5112540;28;20931;-83
2022/10/19 02:53:20;;;;;;;4.60;3.70;;;13.70;99.90;;;;;;5113759;28;21050;-83
2022/10/19 02:55:48;;;;;;;7.33;4.97;;;13.80;99.90;;;;;;5113217;28;20603;-84
2022/10/19 02:58:16;;;;;;;4.93;4.00;;;13.80;99.90;;;;;;5101683;28;20952;-83
2022/10/19 03:00:43;;;;;;;6.37;3.40;;;13.80;99.90;;;;;;5113298;28;20635;-84
2022/10/19 03:03:10;;;;;;;4.10;3.23;;;13.70;99.90;;;;;;5113343;28;20612;-83
2022/10/19 03:05:37;;;;;;;5.43;3.63;;;13.70;99.90;;;;;;5113399;28;20614;-83
2022/10/19 03:08:05;;;;;;;7.63;3.93;;;13.70;99.90;;;;;;5112107;28;20623;-84
2022/10/19 03:10:32;;;;;;;11.30;3.97;;;;;;;;;;5113101;28;20611;-84
2022/10/19 03:13:00;;;;;;;4.97;4.20;;;13.80;99.90;;;;;;5113318;28;20604;-86
2022/10/19 03:15:28;;;;;;;7.73;4.17;;;13.80;99.90;;;;;;5113510;28;20614;-83
2022/10/19 03:17:55;;;;;;;7.33;3.97;;;13.80;99.90;;;;;;5112482;28;20668;-84
2022/10/19 03:20:23;;;;;;;4.60;3.97;;;13.80;99.90;;;;;;5113078;27;20603;-84
2022/10/19 03:22:50;;;;;;;5.50;4.03;;;13.90;99.90;;;;;;5112700;28;20610;-84
2022/10/19 03:25:18;;;;;;;8.13;4.20;;;13.80;99.90;;;;;;5112815;28;20624;-83
2022/10/19 03:27:45;;;;;;;8.03;4.50;;;13.90;99.90;;;;;;5112413;28;20735;-83
2022/10/19 03:30:12;;;;;;;5.23;4.33;;;13.90;99.90;;;;;;5112870;28;20730;-83
2022/10/19 03:32:39;;;;;;;5.80;4.47;;;13.90;99.90;;;;;;5113399;28;20647;-83
2022/10/19 03:35:07;;;;;;;6.93;4.87;;;13.90;99.90;;;;;;5112554;28;20658;-83
2022/10/19 03:37:33;;;;;;;8.50;5.67;;;13.80;99.90;;;;;;5112303;28;20618;-84
2022/10/19 03:40:00;;;;;;;7.87;3.40;;;13.90;99.90;;;;;;5111749;28;20620;-84
2022/10/19 03:42:29;;;;;;;7.03;6.40;;;13.90;99.90;;;;;;5122185;27;20697;-83
2022/10/19 03:44:55;;;;;;;4.73;3.87;;;13.90;99.90;;;;;;5133457;27;21265;-84
2022/10/19 03:47:22;;;;;;;4.80;4.03;;;13.90;99.90;;;;;;5132195;27;20670;-83
2022/10/19 03:49:50;;;;;;;10.03;5.93;;;13.90;99.90;;;;;;5114301;27;20618;-83
2022/10/19 03:52:17;;;;;;;6.70;4.17;;;14.00;99.90;;;;;;5115256;27;20615;-83
2022/10/19 03:54:44;;;;;;;7.87;4.37;;;14.00;99.90;;;;;;5129190;27;20655;-83
2022/10/19 03:57:11;;;;;;;5.30;3.67;;;14.00;99.90;;;;;;5123699;27;20642;-83
2022/10/19 03:59:42;;;;;;;9.73;4.57;;;14.10;99.90;;;;;;5117711;27;20703;-84
2022/10/19 04:02:09;;;;;;;9.97;4.40;;;14.00;99.90;;;;;;5115685;27;20754;-83
2022/10/19 04:04:36;;;;;;;4.67;4.23;;;14.00;99.90;;;;;;5118434;27;20711;-84
2022/10/19 04:07:03;;;;;;;6.10;4.43;;;13.90;99.90;;;;;;5120707;27;20700;-83
2022/10/19 04:09:30;;;;;;;4.27;3.53;;;14.00;99.90;;;;;;5120924;27;20653;-83
2022/10/19 04:11:56;;;;;;;4.37;4.00;;;14.80;99.90;;;;;;5121906;27;20722;-84
2022/10/19 04:14:24;;;;;;;7.80;4.77;;;14.00;99.90;;;;;;5121410;27;20711;-84
2022/10/19 04:16:52;;;;;;;6.00;4.00;;;14.10;99.90;;;;;;5119114;27;20752;-83
2022/10/19 04:19:19;;;;;;;5.87;3.67;;;14.00;99.90;;;;;;5111943;28;20644;-84
2022/10/19 04:21:48;;;;;;;8.00;5.67;;;14.00;99.90;;;;;;5119854;27;20765;-84
2022/10/19 04:24:17;;;;;;;11.27;4.60;;;14.00;99.90;;;;;;5112853;27;20623;-83
2022/10/19 04:26:45;;;;;;;9.33;5.33;;;14.10;99.90;;;;;;5122611;27;20612;-84
2022/10/19 04:29:13;;;;;;;8.30;4.13;;;14.10;99.90;;;;;;5116376;27;20715;-86
2022/10/19 04:31:40;;;;;;;9.13;5.07;;;14.30;99.90;;;;;;5117432;27;20734;-84
2022/10/19 04:34:09;;;;;;;7.20;4.13;;;14.10;99.90;;;;;;5118588;27;20623;-84
2022/10/19 04:36:36;;;;;;;5.27;4.60;;;14.20;99.90;;;;;;5121197;27;20687;-83
2022/10/19 04:39:03;;;;;;;6.10;3.30;;;14.20;99.90;;;;;;5121111;27;20711;-84
2022/10/19 04:41:30;;;;;;;8.87;4.40;;;14.20;99.90;;;;;;5116999;27;20848;-85
2022/10/19 04:43:58;;;;;;;9.57;5.93;;;14.20;99.90;;;;;;5120942;27;20735;-83
2022/10/19 04:46:26;;;;;;;5.97;5.20;;;14.20;99.90;;;;;;5121632;27;20635;-84
2022/10/19 04:48:53;;;;;;;5.30;4.77;;;14.30;99.90;;;;;;5119072;27;20625;-85
2022/10/19 04:51:23;;;;;;;7.97;5.77;;;14.20;99.90;;;;;;5120317;27;20616;-84
2022/10/19 04:53:49;;;;;;;7.80;4.60;;;14.20;99.90;;;;;;5119888;27;21179;-83
2022/10/19 04:56:18;;;;;;;5.57;4.17;;;14.20;99.90;;;;;;5125359;27;21411;-83
2022/10/19 04:58:46;;;;;;;7.07;4.50;;;14.20;99.90;;;;;;5114098;28;20620;-83
2022/10/19 05:01:14;;;;;;;5.60;4.97;;;14.20;99.90;;;;;;5110961;28;20673;-84
2022/10/19 05:03:41;;;;;;;6.87;6.27;;;14.30;99.90;;;;;;5111312;28;20643;-84
2022/10/19 05:06:09;;;;;;;10.47;4.53;;;14.20;99.90;;;;;;5111303;28;20604;-83
2022/10/19 05:08:38;;;;;;;8.50;4.80;;;14.30;99.90;;;;;;5110835;28;20615;-85
2022/10/19 05:11:08;;;;;;;10.23;5.17;;;14.40;99.90;;;;;;5110364;28;20735;-84
2022/10/19 05:13:36;;;;;;;6.70;4.97;;;14.20;99.90;;;;;;5110987;28;20702;-83
2022/10/19 05:16:04;;;;;;;7.43;5.20;;;14.30;99.90;;;;;;5111021;28;20822;-84
2022/10/19 05:18:32;;;;;;;5.20;4.60;;;14.30;99.90;;;;;;5111062;28;20715;-83
2022/10/19 05:21:03;;;;;;;8.20;6.10;;;14.20;99.90;;;;;;5111127;28;20619;-84
2022/10/19 05:23:31;;;;;;;6.80;4.37;;;14.30;99.90;;;;;;5109854;28;20612;-84
2022/10/19 05:26:03;;;;;;;7.30;5.33;;;14.30;99.90;;;;;;5110747;28;20640;-84
2022/10/19 05:28:30;;;;;;;8.23;4.10;;;14.30;99.90;;;;;;5109906;28;20619;-85
2022/10/19 05:31:04;;;;;;;5.87;4.73;;;14.30;99.90;;;;;;5110003;28;20632;-83
2022/10/19 05:33:31;;;;;;;9.30;4.73;;;14.30;99.90;;;;;;5109211;28;21061;-83
2022/10/19 05:35:57;;;;;;;6.30;4.70;;;14.30;99.90;;;;;;5109889;28;20608;-84
2022/10/19 05:38:25;;;;;;;6.80;4.70;;;;;;;;;;5110015;28;20672;-84
2022/10/19 05:40:51;;;;;;;6.37;4.90;;;14.30;99.90;;;;;;5111107;28;20703;-84
2022/10/19 05:43:20;;;;;;;6.10;4.70;;;14.30;99.90;;;;;;5109390;28;20608;-86
2022/10/19 05:45:46;;;;;;;7.40;4.60;;;14.60;99.90;;;;;;5110788;28;20664;-84
2022/10/19 05:48:13;;;;;;;6.20;5.07;;;14.30;99.90;;;;;;5110358;28;20710;-83
2022/10/19 05:50:40;;;;;;;12.00;5.80;;;14.30;99.90;;;;;;5113045;28;20728;-85
2022/10/19 05:53:07;;;;;;;9.40;4.20;;;14.20;99.90;;;;;;5108220;28;20620;-86
2022/10/19 05:55:35;;;;;;;6.00;4.93;;;14.30;99.90;;;;;;5106387;28;20604;-86
2022/10/19 05:58:02;;;;;;;5.00;3.20;;;14.20;99.90;;;;;;5104918;28;20631;-86
2022/10/19 06:00:30;;;;;;;5.77;4.30;;;14.20;99.90;;;;;;5100050;28;21002;-85
2022/10/19 06:02:57;;;;;;;6.17;3.80;;;14.30;99.90;;;;;;5110171;28;20690;-86
2022/10/19 06:05:24;;;;;;;6.47;5.00;;;14.20;99.90;;;;;;5114007;28;20620;-86
2022/10/19 06:07:51;;;;;;;8.83;4.97;;;14.20;99.90;;;;;;5106200;28;20639;-85
2022/10/19 06:10:18;;;;;;;5.87;5.10;;;14.20;99.90;;;;;;5113259;28;20614;-85
2022/10/19 06:12:46;;;;;;;8.77;5.23;;;14.20;99.90;;;;;;5113615;28;21150;-85
2022/10/19 06:15:13;;;;;;;6.47;4.37;;;14.20;99.90;;;;;;5109108;28;20608;-85
2022/10/19 06:17:41;;;;;;;5.87;3.80;;;14.20;99.90;;;;;;5113161;28;20614;-85
2022/10/19 06:20:09;;;;;;;6.03;4.10;;;14.20;99.90;;;;;;5114422;28;20611;-85
2022/10/19 06:22:36;;;;;;;4.33;3.90;;;14.20;99.90;;;;;;5113539;28;20663;-87
2022/10/19 06:25:03;;;;;;;5.80;4.20;;;14.20;99.90;;;;;;5113587;28;20608;-85
2022/10/19 06:27:31;;;;;;;6.47;2.87;;;14.20;99.90;;;;;;5117317;27;20663;-86
2022/10/19 06:29:58;;;;;;;6.80;4.40;;;14.20;99.90;;;;;;5133734;27;20615;-85
2022/10/19 06:32:27;;;;;;;6.00;4.73;;;14.20;99.90;;;;;;5108612;28;21230;-87
2022/10/19 06:34:55;;;;;;;4.67;3.40;;;14.20;99.90;;;;;;5113151;28;20635;-85
2022/10/19 06:37:22;;;;;;;5.53;3.90;;;14.20;99.90;;;;;;5113612;28;20629;-86
2022/10/19 06:39:48;;;;;;;5.33;3.63;;;14.20;99.90;;;;;;5114003;28;20665;-85
2022/10/19 06:42:15;;;;;;;6.17;3.87;;;14.20;99.90;;;;;;5113756;28;21431;-85
2022/10/19 06:44:42;;;;;;;6.60;4.23;;;14.20;99.90;;;;;;5113022;28;20724;-85
2022/10/19 06:47:09;;;;;;;11.37;5.33;;;14.20;99.90;;;;;;5113616;28;21037;-85
2022/10/19 06:49:36;;;;;;;5.10;3.47;;;;;;;;;;5113592;28;20623;-85
2022/10/19 06:52:06;;;;;;;7.60;4.10;;;14.20;99.90;;;;;;5113749;28;20602;-84
2022/10/19 06:54:33;;;;;;;4.40;4.00;;;14.10;99.90;;;;;;5113478;28;20614;-85
2022/10/19 06:57:00;;;;;;;5.77;4.17;;;14.20;99.90;;;;;;5110749;28;20621;-85
2022/10/19 06:59:27;;;;;;;4.93;3.17;;;14.40;99.90;;;;;;5104648;28;20638;-85
2022/10/19 07:01:53;;;;;;;5.27;4.10;;;14.20;99.90;;;;;;5113645;28;20661;-85
2022/10/19 07:04:20;;;;;;;5.23;3.67;;;14.20;99.90;;;;;;5113477;28;20599;-86
2022/10/19 07:06:47;;;;;;;6.00;5.13;;;14.20;99.90;;;;;;5104210;28;20712;-84
2022/10/19 07:09:15;;;;;;;5.13;4.30;;;14.30;99.90;;;;;;5093003;28;20612;-85
2022/10/19 07:11:44;;;;;;;6.93;4.43;;;14.30;99.90;;;;;;5093853;28;20636;-85
2022/10/19 07:14:11;;;;;;;4.50;4.10;;;14.30;99.90;;;;;;5112339;28;21132;-84
2022/10/19 07:16:38;;;;;;;4.00;2.67;;;14.30;99.90;;;;;;5112793;28;20738;-84
2022/10/19 07:19:05;;;;;;;7.80;4.33;;;14.30;99.90;;;;;;5114270;27;21066;-85
2022/10/19 07:21:32;;;;;;;4.47;3.43;;;14.30;99.90;;;;;;5112904;28;20611;-85
2022/10/19 07:23:58;;;;;;;5.50;4.30;;;14.30;99.90;;;;;;5113432;28;20691;-85
2022/10/19 07:26:29;;;;;;;5.20;4.30;;;14.30;99.90;;;;;;5111631;28;20643;-85
2022/10/19 07:28:57;;;;;;;4.93;4.47;;;14.30;99.90;;;;;;5113115;28;20615;-86
2022/10/19 07:31:25;;;;;;;4.47;3.70;;;14.30;99.90;;;;;;5112647;28;20615;-85
2022/10/19 07:33:53;;;;;;;4.20;3.03;;;14.30;99.90;;;;;;5106466;28;20678;-85
2022/10/19 07:36:20;;;;;;;6.10;4.77;;;14.40;99.90;;;;;;5112803;28;20607;-85
2022/10/19 07:38:47;;;;;;;5.10;3.43;;;14.30;99.90;;;;;;5111678;28;20715;-85
2022/10/19 07:41:16;;;;;;;5.30;3.40;;;14.30;99.90;;;;;;5112027;28;20723;-86
2022/10/19 07:43:46;;;;;;;4.23;3.87;;;14.30;99.90;;;;;;5112401;28;20758;-86
2022/10/19 07:46:14;;;;;;;5.13;3.97;;;15.00;99.90;;;;;;5112575;28;20608;-85
2022/10/19 07:48:42;;;;;;;5.83;3.97;;;14.40;99.90;;;;;;5112161;28;20618;-87
2022/10/19 07:51:11;;;;;;;5.17;4.57;;;14.40;99.90;;;;;;5112099;28;20618;-86
2022/10/19 07:53:38;;;;;;;7.10;3.70;;;14.40;99.90;;;;;;5131915;27;20634;-85
2022/10/19 07:56:07;;;;;;;5.43;4.93;;;14.40;99.90;;;;;;5124173;27;20625;-86
2022/10/19 07:58:35;;;;;;;4.37;3.73;;;14.40;99.90;;;;;;5101008;28;20723;-87
2022/10/19 08:01:05;;;;;;;3.70;2.87;;;14.40;99.90;;;;;;5112063;28;20626;-85
2022/10/19 08:03:32;;;;;;;5.50;3.80;;;14.40;99.90;;;;;;5111594;28;20655;-85
2022/10/19 08:06:03;;;;;;;4.40;3.50;;;14.70;99.90;;;;;;5108983;28;20596;-84
2022/10/19 08:08:30;;;;;;;4.77;3.77;;;14.50;99.90;;;;;;5108874;28;20727;-85
2022/10/19 08:10:58;;;;;;;8.73;4.50;;;14.50;99.90;;;;;;5110536;28;21183;-85
2022/10/19 08:13:25;;;;;;;4.77;3.77;;;14.50;99.90;;;;;;5112175;28;20612;-85
2022/10/19 08:15:52;;;;;;;5.33;3.60;;;;;;;;;;5111580;28;21007;-84
2022/10/19 08:18:21;;;;;;;4.20;2.80;;;14.60;99.90;;;;;;5121595;27;21009;-86
2022/10/19 08:20:48;;;;;;;5.73;3.17;;;14.60;99.90;;;;;;5132138;27;21306;-86
2022/10/19 08:23:16;;;;;;;4.47;3.77;;;14.60;99.90;;;;;;5132259;27;20654;-85
2022/10/19 08:25:42;;;;;;;4.37;3.33;;;14.60;99.90;;;;;;5132157;27;20623;-85
2022/10/19 08:28:09;;;;;;;6.70;4.53;;;;;;;;;;5120399;27;20651;-85
2022/10/19 08:30:37;;;;;;;3.40;3.10;;;14.80;99.90;;;;;;5111645;28;21345;-86
2022/10/19 08:33:06;;;;;;;4.40;3.10;;;14.70;99.90;;;;;;5110432;28;20631;-85
2022/10/19 08:35:35;;;;;;;3.57;3.33;;;14.70;99.90;;;;;;5111716;28;20618;-85
2022/10/19 08:38:01;;;;;;;3.80;3.03;;;14.70;99.90;;;;;;5111265;28;20655;-84
2022/10/19 08:40:30;;;;;;;5.37;4.27;;;14.80;99.90;;;;;;5112727;27;20726;-86
2022/10/19 08:43:04;;;;;;;5.50;4.07;;;14.80;99.90;;;;;;5131818;27;20646;-85
2022/10/19 08:45:41;;;;;;;6.13;4.40;;;14.80;99.90;;;;;;5131913;27;20638;-82
2022/10/19 08:48:25;;;;;;;4.00;3.50;;;14.80;99.90;;;;;;5128269;27;20712;-83
2022/10/19 08:50:55;;;;;;;4.13;3.80;;;14.80;99.90;;;;;;5110333;28;20622;-83
2022/10/19 08:53:33;;;;;;;6.00;3.20;;;14.80;99.90;;;;;;5111211;28;20644;-82
2022/10/19 08:56:18;;;;;;;4.00;2.70;;;14.80;99.90;;;;;;5109301;28;20622;-87
2022/10/19 08:59:00;;;;;;;4.30;3.20;;;14.80;99.90;;;;;;5112929;27;20974;-86
2022/10/19 09:01:38;;;;;;;4.67;4.17;;;14.80;99.90;;;;;;5108786;28;20619;-86
2022/10/19 09:04:08;;;;;;;4.20;3.27;;;14.90;99.90;;;;;;5108752;28;21055;-85
2022/10/19 09:06:44;;;;;;;2.07;1.90;;;14.90;99.90;;;;;;5102453;28;20699;-86
2022/10/19 09:09:13;;;;;;;3.77;3.47;;;14.90;99.90;;;;;;5089419;28;21184;-85
2022/10/19 09:11:46;;;;;;;5.30;4.20;;;15.60;99.90;;;;;;5090738;28;20724;-84
2022/10/19 09:14:18;;;;;;;3.23;2.93;;;14.90;99.90;;;;;;5090657;28;20628;-85
2022/10/19 09:16:45;;;;;;;3.77;2.83;;;14.90;99.90;;;;;;5099612;28;20620;-85
2022/10/19 09:19:21;;;;;;;3.73;3.30;;;14.90;99.90;;;;;;5110703;28;20623;-85
2022/10/19 09:21:54;;;;;;;5.93;3.10;;;15.00;99.90;;;;;;5110986;28;20619;-86
2022/10/19 09:24:29;;;;;;;3.93;2.33;;;14.90;99.90;;;;;;5111011;28;20763;-84
2022/10/19 09:26:58;;;;;;;4.30;2.70;;;14.90;99.90;;;;;;5110461;28;20730;-84
2022/10/19 09:29:30;;;;;;;3.83;3.53;;;15.00;99.90;;;;;;5110563;28;21045;-85
2022/10/19 09:32:00;;;;;;;4.37;3.43;;;14.90;99.90;;;;;;5110641;28;20611;-85
2022/10/19 09:34:32;;;;;;;4.77;3.00;;;14.60;99.90;;;;;;5110741;28;20635;-86
2022/10/19 09:37:01;;;;;;;2.83;2.27;;;15.00;99.90;;;;;;5112993;27;20620;-86
2022/10/19 09:39:29;;;;;;;3.83;2.53;;;14.90;99.90;;;;;;5135438;27;20713;-85
2022/10/19 09:41:58;;;;;;;3.50;3.10;;;15.00;99.90;;;;;;5134045;27;21286;-85
2022/10/19 09:44:27;;;;;;;2.47;2.20;;;15.10;99.90;;;;;;5114641;28;20767;-85
2022/10/19 09:47:02;;;;;;;4.77;2.83;;;15.00;99.90;;;;;;5114753;28;20607;-86
2022/10/19 09:49:40;;;;;;;3.27;2.57;;;15.00;99.90;;;;;;5114633;28;20617;-87
2022/10/19 09:52:24;;;;;;;2.77;2.07;;;14.90;99.90;;;;;;5114191;28;21168;-85
2022/10/19 09:55:00;;;;;;;4.13;2.77;;;15.00;99.90;;;;;;5114675;28;20624;-84
2022/10/19 09:57:28;;;;;;;4.10;2.30;;;15.00;99.90;;;;;;5107542;28;21032;-86
2022/10/19 09:59:55;;;;;;;4.20;3.33;;;15.00;99.90;;;;;;5110506;28;20703;-86
2022/10/19 10:02:29;;;;;;;2.40;2.20;;;15.00;99.90;;;;;;5114133;28;20620;-86
2022/10/19 10:05:02;;;;;;;2.60;2.10;;;15.00;99.90;;;;;;5114607;28;20727;-84
2022/10/19 10:07:37;;;;;;;2.67;2.47;;;15.00;99.90;;;;;;5099783;28;21185;-86
2022/10/19 10:10:10;;;;;;;2.80;2.27;;;15.00;99.90;;;;;;5094165;28;20618;-84
2022/10/19 10:12:40;;;;;;;2.93;2.33;;;15.00;99.90;;;;;;5094092;28;20620;-85
2022/10/19 10:15:07;;;;;;;4.40;1.90;;;14.90;99.90;;;;;;5093107;28;21185;-84
2022/10/19 10:17:36;;;;;;;3.57;2.27;;;15.00;99.90;;;;;;5111429;28;20616;-84
2022/10/19 10:20:19;;;;;;;2.47;1.80;;;15.00;99.90;;;;;;5114421;28;20600;-85
2022/10/19 10:22:56;;;;;;;1.93;1.47;;;15.10;99.90;;;;;;5114237;27;20669;-85
2022/10/19 10:25:30;;;;;;;2.00;1.63;;;15.00;99.90;;;;;;5113982;28;20615;-84
2022/10/19 10:28:00;;;;;;;1.57;1.47;;;15.20;99.90;;;;;;5114627;28;20676;-84
2022/10/19 10:30:32;;;;;;;1.40;1.30;;;15.20;99.90;;;;;;5114214;28;20707;-85
2022/10/19 10:32:59;;;;;;;2.20;1.53;;;15.20;99.90;;;;;;5113907;27;21059;-83
2022/10/19 10:35:31;;;;;;;1.70;1.43;;;15.30;99.90;;;;;;5114969;27;20664;-86
2022/10/19 10:38:09;;;;;;;1.67;1.57;;;15.30;99.90;;;;;;5113623;28;21244;-85
2022/10/19 10:40:38;;;;;;;2.10;1.90;;;15.10;99.90;;;;;;5113833;28;21373;-86
2022/10/19 10:43:08;;;;;;;1.93;1.50;;;15.20;99.90;;;;;;5114166;28;21246;-86
2022/10/19 10:45:44;;;;;;;2.57;1.83;;;15.20;99.90;;;;;;5113812;28;20722;-84
2022/10/19 10:48:20;;;;;;;1.70;1.57;;;15.30;99.90;;;;;;5113482;28;20694;-83
2022/10/19 10:50:48;;;;;;;3.00;2.27;;;;;;;;;;5114021;28;20622;-85
2022/10/19 10:56:23;;;;;;;2.00;1.57;;;15.30;99.90;;;;;;5165960;27;20329;-85
2022/10/19 10:58:56;;;;;;;2.27;2.00;;;15.40;99.90;;;;;;5148756;27;20616;-85
2022/10/19 11:01:27;;;;;;;1.53;1.40;;;15.20;99.90;;;;;;5150141;27;20618;-84
2022/10/19 11:03:59;;;;;;;3.67;2.40;;;15.30;99.90;;;;;;5149702;27;20947;-83
2022/10/19 11:06:26;;;;;;;2.70;1.90;;;15.30;99.90;;;;;;5149914;27;20733;-84
2022/10/19 11:09:04;;;;;;;1.63;1.53;;;15.30;99.90;;;;;;5149607;27;20606;-84
2022/10/19 11:11:36;;;;;;;2.00;1.67;;;15.20;99.90;;;;;;5149454;27;20590;-82
2022/10/19 11:14:28;;;;;;;2.80;1.90;;;15.30;99.90;;;;;;5149412;27;20634;-83
2022/10/19 11:16:59;;;;;;;2.37;2.07;;;15.40;99.90;;;;;;5149313;27;20632;-83
2022/10/19 11:19:32;;;;;;;2.70;1.93;;;15.30;99.90;;;;;;5149694;27;20713;-86
2022/10/19 11:22:09;;;;;;;2.43;1.63;;;15.40;99.90;;;;;;5149267;27;20605;-83
2022/10/19 11:24:47;;;;;;;2.97;2.13;;;15.50;99.90;;;;;;5149419;27;20713;-83
2022/10/19 11:27:24;;;;;;;1.90;1.80;;;15.40;99.90;;;;;;5149429;27;20700;-85
2022/10/19 11:30:03;;;;;;;2.40;2.10;;;15.50;99.90;;;;;;5149480;27;20664;-85
2022/10/19 11:32:36;;;;;;;2.07;1.90;;;15.50;99.90;;;;;;5149212;27;20617;-85
2022/10/19 11:35:16;;;;;;;3.57;2.20;;;15.60;99.90;;;;;;5149180;27;20661;-83
2022/10/19 11:37:49;;;;;;;4.60;3.20;;;15.60;99.90;;;;;;5147890;27;20709;-83
2022/10/19 11:40:25;;;;;;;2.80;2.13;;;15.70;99.90;;;;;;5127597;27;20626;-83
2022/10/19 11:43:01;;;;;;;2.13;1.87;;;15.70;99.90;;;;;;5128442;28;20642;-83
2022/10/19 11:45:41;;;;;;;2.40;2.17;;;15.90;99.90;;;;;;5128078;28;20611;-85
2022/10/19 11:48:30;;;;;;;1.73;1.50;;;15.80;99.90;;;;;;5128091;28;21160;-85
2022/10/19 11:51:06;;;;;;;1.43;1.33;;;15.80;99.90;;;;;;5127229;28;20611;-85
2022/10/19 11:53:43;;;;;;;2.90;2.40;;;15.90;99.90;;;;;;5128312;28;20649;-83
2022/10/19 11:56:17;;;;;;;1.90;1.80;;;15.90;99.90;;;;;;5136794;27;20657;-83
2022/10/19 11:58:55;;;;;;;1.93;1.67;;;16.00;99.90;;;;;;5148547;27;21038;-84
2022/10/19 12:01:34;;;;;;;2.83;2.60;;;16.00;99.90;;;;;;5147809;27;20648;-84
2022/10/19 12:04:21;;;;;;;1.70;1.53;;;15.90;99.90;;;;;;5149109;27;20606;-85
2022/10/19 12:06:56;;;;;;;2.47;2.00;;;16.00;99.90;;;;;;5129347;27;20711;-84
2022/10/19 12:09:32;;;;;;;1.90;1.53;;;16.10;99.90;;;;;;5114042;28;20740;-85
2022/10/19 12:12:21;;;;;;;4.80;2.07;;;16.00;99.90;;;;;;5113781;28;20663;-84
2022/10/19 12:14:52;;;;;;;2.10;1.77;;;16.00;99.90;;;;;;5113000;28;20651;-85
2022/10/19 12:17:23;;;;;;;2.23;2.00;;;17.00;99.90;;;;;;5128937;27;20726;-84
2022/10/19 12:19:54;;;;;;;2.13;1.90;;;16.20;99.90;;;;;;5134531;27;20705;-85
2022/10/19 12:22:24;;;;;;;4.23;2.23;;;16.10;99.90;;;;;;5133779;27;20619;-84
2022/10/19 12:24:54;;;;;;;2.53;1.93;;;16.10;99.90;;;;;;5134446;27;20625;-84
2022/10/19 12:27:28;;;;;;;2.97;2.33;;;16.10;99.90;;;;;;5134261;27;20599;-83
2022/10/19 12:30:01;;;;;;;3.63;2.50;;;16.10;99.90;;;;;;5134119;27;20614;-83
2022/10/19 12:32:30;;;;;;;3.00;2.13;;;16.20;99.90;;;;;;5133742;27;20651;-85
2022/10/19 12:35:05;;;;;;;2.27;2.07;;;16.30;99.90;;;;;;5134220;27;20773;-84
2022/10/19 12:37:40;;;;;;;1.67;1.57;;;16.70;99.90;;;;;;5133732;27;20629;-84
2022/10/19 12:40:18;;;;;;;3.30;2.03;;;16.30;99.90;;;;;;5134079;27;20667;-84
2022/10/19 12:42:53;;;;;;;2.30;1.90;;;16.40;99.90;;;;;;5134030;27;20698;-83
2022/10/19 12:45:29;;;;;;;2.90;2.10;;;16.30;99.90;;;;;;5134162;27;20712;-83
2022/10/19 12:48:23;;;;;;;2.27;2.07;;;16.30;99.90;;;;;;5134142;27;20611;-83
2022/10/19 12:51:01;;;;;;;2.20;1.63;;;16.30;99.90;;;;;;5133917;27;20658;-85
2022/10/19 12:53:31;;;;;;;3.37;2.17;;;16.30;99.90;;;;;;5133084;27;20603;-83
2022/10/19 12:56:00;;;;;;;1.93;1.70;;;16.30;99.90;;;;;;5133766;27;20658;-85
2022/10/19 12:58:31;;;;;;;2.73;2.47;;;16.40;99.90;;;;;;5133584;27;20718;-85
2022/10/19 13:01:01;;;;;;;2.20;2.00;;;17.20;99.90;;;;;;5133683;27;20675;-83
2022/10/19 13:03:32;;;;;;;3.50;2.90;;;16.30;99.90;;;;;;5133667;27;20654;-85
2022/10/19 13:06:01;;;;;;;3.30;2.40;;;16.30;99.90;;;;;;5130450;27;20618;-84
2022/10/19 13:08:32;;;;;;;3.50;2.23;;;16.30;99.90;;;;;;5112924;28;20620;-83